Time;durP1;ratioP1;P1;durP2;ratioP2;P2;SDS_P1;SDS_P2;PMS_P1;PMS_P2;Temp;Humidity;BMP_temperature;BMP_pressure;BME280_temperature;BME280_humidity;BME280_pressure;Samples;Min_cycle;Max_cycle;Signal;HPM_P1;HPM_P2
2022/10/14 00:01:16;;;;;;;12.18;4.55;;;12.10;99.90;;;;;;5069521;28;20047;-49
2022/10/14 00:03:42;;;;;;;14.35;4.10;;;12.10;99.90;;;;;;5069991;28;20052;-49
2022/10/14 00:06:13;;;;;;;6.90;3.95;;;12.10;99.90;;;;;;5067261;28;20055;-48
2022/10/14 00:08:41;;;;;;;8.00;4.45;;;12.10;99.90;;;;;;5070560;28;20544;-48
2022/10/14 00:11:18;;;;;;;10.77;4.07;;;12.10;99.90;;;;;;5068707;28;20049;-49
2022/10/14 00:13:46;;;;;;;7.55;3.97;;;12.10;99.90;;;;;;5072141;28;20033;-49
2022/10/14 00:16:29;;;;;;;8.57;3.90;;;12.10;99.90;;;;;;5079165;28;20125;-51
2022/10/14 00:18:57;;;;;;;9.80;3.90;;;12.10;99.90;;;;;;5071329;28;20072;-48
2022/10/14 00:21:25;;;;;;;5.05;3.42;;;12.00;99.90;;;;;;5076437;28;20036;-51
2022/10/14 00:23:51;;;;;;;6.40;3.85;;;12.10;99.90;;;;;;5085926;28;20433;-48
2022/10/14 00:26:29;;;;;;;8.88;3.67;;;12.00;99.90;;;;;;5086192;28;20032;-49
2022/10/14 00:28:57;;;;;;;8.45;3.90;;;12.00;99.90;;;;;;5092284;28;20098;-49
2022/10/14 00:31:26;;;;;;;8.07;3.47;;;12.00;99.90;;;;;;5077787;28;20135;-49
2022/10/14 00:33:53;;;;;;;9.63;3.25;;;12.00;99.90;;;;;;5074777;28;20048;-49
2022/10/14 00:36:22;;;;;;;5.32;2.78;;;12.00;99.90;;;;;;5086355;28;20105;-51
2022/10/14 00:38:49;;;;;;;10.43;3.13;;;12.00;99.90;;;;;;5092395;28;20669;-50
2022/10/14 00:41:19;;;;;;;5.78;2.90;;;12.00;99.90;;;;;;5093056;28;20555;-50
2022/10/14 00:44:00;;;;;;;4.45;2.90;;;11.90;99.90;;;;;;5085930;28;20557;-48
2022/10/14 00:46:30;;;;;;;5.53;3.00;;;11.90;99.90;;;;;;5087462;28;20036;-48
2022/10/14 00:49:16;;;;;;;6.15;3.28;;;11.90;99.90;;;;;;5087252;28;20051;-50
2022/10/14 00:51:47;;;;;;;11.40;3.90;;;11.90;99.90;;;;;;5087900;28;20078;-48
2022/10/14 00:54:17;;;;;;;7.43;4.20;;;11.90;99.90;;;;;;5089126;28;20036;-48
2022/10/14 00:56:46;;;;;;;6.78;3.85;;;11.90;99.90;;;;;;5080367;28;20071;-48
2022/10/14 00:59:14;;;;;;;8.02;3.65;;;11.80;99.90;;;;;;5082599;28;20048;-49
2022/10/14 01:01:40;;;;;;;10.90;4.18;;;11.80;99.90;;;;;;5094531;28;20435;-49
2022/10/14 01:04:07;;;;;;;7.25;4.18;;;11.90;99.90;;;;;;5077924;28;20044;-49
2022/10/14 01:06:45;;;;;;;7.57;3.60;;;11.90;99.90;;;;;;5075839;28;20559;-49
2022/10/14 01:09:42;;;;;;;6.32;3.60;;;11.90;99.90;;;;;;5068137;28;20417;-48
2022/10/14 01:12:33;;;;;;;10.65;4.38;;;11.80;99.90;;;;;;5087975;28;20075;-49
2022/10/14 01:15:06;;;;;;;9.30;4.93;;;11.80;99.90;;;;;;5077552;28;20282;-50
2022/10/14 01:17:32;;;;;;;10.45;6.20;;;11.80;99.90;;;;;;5079125;28;20040;-50
2022/10/14 01:20:08;;;;;;;10.52;5.00;;;11.80;99.90;;;;;;5076733;28;20086;-51
2022/10/14 01:22:46;;;;;;;9.65;5.03;;;11.80;99.90;;;;;;5074288;28;20040;-49
2022/10/14 01:25:24;;;;;;;9.88;5.00;;;11.80;99.90;;;;;;5075202;28;20098;-49
2022/10/14 01:28:17;;;;;;;7.07;4.78;;;11.80;99.90;;;;;;5082237;28;20113;-49
2022/10/14 01:31:09;;;;;;;12.35;5.03;;;11.80;99.90;;;;;;5056915;28;20135;-51
2022/10/14 01:33:39;;;;;;;9.45;5.57;;;11.80;99.90;;;;;;5058066;28;20049;-50
2022/10/14 01:36:13;;;;;;;8.77;4.97;;;11.70;99.90;;;;;;5054251;28;20049;-50
2022/10/14 01:38:48;;;;;;;11.15;4.68;;;11.70;99.90;;;;;;5072996;28;20043;-48
2022/10/14 01:41:18;;;;;;;9.45;4.40;;;11.70;99.90;;;;;;5076269;28;20474;-50
2022/10/14 01:43:48;;;;;;;11.98;4.80;;;11.70;99.90;;;;;;5055023;28;20044;-50
2022/10/14 01:46:18;;;;;;;11.18;4.38;;;11.70;99.90;;;;;;5070795;28;20051;-48
2022/10/14 01:48:49;;;;;;;8.70;4.50;;;11.70;99.90;;;;;;5058678;28;20109;-50
2022/10/14 01:51:25;;;;;;;9.43;5.50;;;11.80;99.90;;;;;;5074056;28;20053;-48
2022/10/14 01:54:10;;;;;;;8.25;5.15;;;11.70;99.90;;;;;;5071911;28;20102;-51
2022/10/14 01:56:38;;;;;;;9.57;5.15;;;11.70;99.90;;;;;;5076524;28;20044;-48
2022/10/14 01:59:10;;;;;;;17.35;6.00;;;11.70;99.90;;;;;;5071948;28;20052;-50
2022/10/14 02:01:37;;;;;;;15.77;5.88;;;11.70;99.90;;;;;;5054074;28;20045;-50
2022/10/14 02:04:19;;;;;;;11.23;4.95;;;11.70;99.90;;;;;;5054267;28;20051;-49
2022/10/14 02:07:09;;;;;;;8.70;4.35;;;11.70;99.90;;;;;;5058848;28;20386;-48
2022/10/14 02:10:19;;;;;;;10.13;4.35;;;11.70;99.90;;;;;;5071814;28;20708;-51
2022/10/14 02:13:16;;;;;;;8.77;4.50;;;11.70;99.90;;;;;;5076483;28;20035;-49
2022/10/14 02:16:17;;;;;;;6.75;4.00;;;11.70;99.90;;;;;;5060006;28;20049;-50
2022/10/14 02:19:15;;;;;;;7.00;3.67;;;11.70;99.90;;;;;;5051265;28;20048;-51
2022/10/14 02:21:51;;;;;;;8.15;3.80;;;11.70;99.90;;;;;;5074646;28;20076;-47
2022/10/14 02:24:31;;;;;;;5.88;3.65;;;11.70;99.90;;;;;;5087250;28;20044;-52
2022/10/14 02:27:03;;;;;;;4.72;3.13;;;11.70;99.90;;;;;;5069787;28;20056;-51
2022/10/14 02:29:33;;;;;;;6.78;3.53;;;11.70;99.90;;;;;;5056678;28;20044;-51
2022/10/14 02:32:03;;;;;;;7.88;3.60;;;11.70;99.90;;;;;;5066918;28;20043;-50
2022/10/14 02:34:31;;;;;;;10.40;4.50;;;11.70;99.90;;;;;;5090651;28;20512;-47
2022/10/14 02:36:59;;;;;;;13.00;3.83;;;11.70;99.90;;;;;;5091782;28;20048;-49
2022/10/14 02:39:35;;;;;;;9.88;3.65;;;11.60;99.90;;;;;;5066206;28;20048;-49
2022/10/14 02:42:04;;;;;;;6.85;3.97;;;11.60;99.90;;;;;;5070971;28;20157;-49
2022/10/14 02:44:33;;;;;;;6.85;3.63;;;11.60;99.90;;;;;;5053070;28;20581;-49
2022/10/14 02:47:00;;;;;;;5.10;3.47;;;11.60;99.90;;;;;;5065471;28;20044;-52
2022/10/14 02:49:28;;;;;;;6.05;3.50;;;11.60;99.90;;;;;;5080621;28;20484;-49
2022/10/14 02:51:55;;;;;;;7.93;3.85;;;11.60;99.90;;;;;;5073354;28;20040;-54
2022/10/14 02:54:22;;;;;;;7.80;4.10;;;11.50;99.90;;;;;;5068828;28;20048;-50
2022/10/14 02:56:49;;;;;;;13.60;4.57;;;11.60;99.90;;;;;;5068296;28;20079;-50
2022/10/14 02:59:15;;;;;;;9.30;4.68;;;11.60;99.90;;;;;;5091445;28;20491;-47
2022/10/14 03:01:42;;;;;;;13.43;4.85;;;11.60;99.90;;;;;;5089166;28;20052;-50
2022/10/14 03:04:10;;;;;;;7.55;4.35;;;11.60;99.90;;;;;;5081342;28;20059;-51
2022/10/14 03:07:03;;;;;;;8.45;4.53;;;11.50;99.90;;;;;;5090928;22;20073;31
2022/10/14 03:09:33;;;;;;;7.18;3.97;;;11.60;99.90;;;;;;5055987;28;20048;-50
2022/10/14 03:12:00;;;;;;;9.45;4.43;;;11.60;99.90;;;;;;5085882;28;20044;-48
2022/10/14 03:14:27;;;;;;;9.25;5.03;;;11.50;99.90;;;;;;5074945;28;20043;-49
2022/10/14 03:16:55;;;;;;;6.78;4.35;;;11.60;99.90;;;;;;5110772;28;20048;-48
2022/10/14 03:19:23;;;;;;;7.22;4.00;;;11.50;99.90;;;;;;5073050;28;20082;-48
2022/10/14 03:21:53;;;;;;;6.63;4.63;;;11.50;99.90;;;;;;5084267;28;20072;-48
2022/10/14 03:24:20;;;;;;;12.48;4.90;;;11.50;99.90;;;;;;5083459;28;20046;-49
2022/10/14 03:27:00;;;;;;;10.60;4.85;;;11.60;99.90;;;;;;5071801;28;20704;-48
2022/10/14 03:29:28;;;;;;;12.18;4.78;;;11.50;99.90;;;;;;5069427;28;20040;-48
2022/10/14 03:32:04;;;;;;;8.32;4.43;;;11.50;99.90;;;;;;5062084;28;20048;-48
2022/10/14 03:34:51;;;;;;;7.82;4.10;;;11.50;99.90;;;;;;5070742;28;20647;-48
2022/10/14 03:37:22;;;;;;;9.82;4.45;;;11.60;99.90;;;;;;5067210;28;20110;-48
2022/10/14 03:39:52;;;;;;;8.23;4.35;;;11.60;99.90;;;;;;5071142;28;20135;-48
2022/10/14 03:42:19;;;;;;;7.00;4.15;;;11.50;99.90;;;;;;5088901;28;20481;-47
2022/10/14 03:44:48;;;;;;;9.82;5.25;;;11.50;99.90;;;;;;5068694;28;20047;-48
2022/10/14 03:47:41;;;;;;;9.32;4.13;;;11.50;99.90;;;;;;5085901;28;20055;-48
2022/10/14 03:50:08;;;;;;;;;;;11.50;99.90;;;;;;5090585;28;20100;-48
2022/10/14 03:52:44;;;;;;;8.45;4.97;;;11.50;99.90;;;;;;5065674;28;19921;-48
2022/10/14 03:55:22;;;;;;;4.35;3.47;;;11.60;99.90;;;;;;5070882;28;20054;-48
2022/10/14 03:57:50;;;;;;;4.47;2.63;;;11.60;99.90;;;;;;5065915;28;20052;-48
2022/10/14 04:00:18;;;;;;;5.72;3.60;;;11.50;99.90;;;;;;5061644;28;20044;-49
2022/10/14 04:02:51;;;;;;;5.70;3.38;;;11.50;99.90;;;;;;5088496;28;20044;-48
2022/10/14 04:05:32;;;;;;;8.95;3.95;;;11.50;99.90;;;;;;5071026;28;20131;-48
2022/10/14 04:08:04;;;;;;;6.05;4.28;;;11.50;99.90;;;;;;5073133;28;20068;-48
2022/10/14 04:10:30;;;;;;;9.18;4.93;;;11.50;99.90;;;;;;5070194;28;20634;-47
2022/10/14 04:12:57;;;;;;;9.00;5.80;;;11.50;99.90;;;;;;5072915;28;20416;-47
2022/10/14 04:15:30;;;;;;;8.77;5.50;;;11.50;99.90;;;;;;5069530;28;20051;-48
2022/10/14 04:18:12;;;;;;;9.95;5.45;;;11.50;99.90;;;;;;5089264;28;20047;-49
2022/10/14 04:20:39;;;;;;;11.80;5.85;;;11.60;99.90;;;;;;5069984;28;20056;-48
2022/10/14 04:23:07;;;;;;;8.27;5.95;;;11.50;99.90;;;;;;5065911;28;20496;-49
2022/10/14 04:25:39;;;;;;;7.30;4.35;;;11.50;99.90;;;;;;5069017;28;20064;-48
2022/10/14 04:28:06;;;;;;;8.02;5.25;;;11.50;99.90;;;;;;5066127;28;20254;-48
2022/10/14 04:30:56;;;;;;;7.55;4.88;;;11.60;99.90;;;;;;5080516;28;20122;-47
2022/10/14 04:33:27;;;;;;;6.57;3.97;;;11.60;99.90;;;;;;5072160;28;20500;-49
2022/10/14 04:35:58;;;;;;;6.72;3.88;;;11.50;99.90;;;;;;5082164;28;20515;-48
2022/10/14 04:38:32;;;;;;;10.68;4.35;;;11.50;99.90;;;;;;5070908;28;20040;-48
2022/10/14 04:41:03;;;;;;;8.70;4.97;;;11.50;99.90;;;;;;5072230;28;20135;-49
2022/10/14 04:43:30;;;;;;;8.20;4.32;;;11.50;99.90;;;;;;5071986;28;20040;-47
2022/10/14 04:46:08;;;;;;;13.48;4.13;;;11.60;99.90;;;;;;5070668;28;20051;-48
2022/10/14 04:48:35;;;;;;;7.05;4.40;;;11.50;99.90;;;;;;5071338;28;20051;-48
2022/10/14 04:51:03;;;;;;;8.75;4.22;;;11.50;99.90;;;;;;5072048;28;20044;-48
2022/10/14 04:53:39;;;;;;;6.53;4.30;;;11.50;99.90;;;;;;5070652;28;20032;-50
2022/10/14 04:56:25;;;;;;;9.90;4.43;;;11.50;99.90;;;;;;5072807;28;20044;-48
2022/10/14 04:58:57;;;;;;;6.18;3.78;;;11.50;99.90;;;;;;5066893;28;20036;-49
2022/10/14 05:01:38;;;;;;;7.00;3.80;;;11.50;99.90;;;;;;5073189;28;20048;-48
2022/10/14 05:04:05;;;;;;;6.00;3.80;;;11.50;99.90;;;;;;5074417;28;20495;-48
2022/10/14 05:06:37;;;;;;;5.35;4.07;;;11.60;99.90;;;;;;5075010;28;20048;-49
2022/10/14 05:09:06;;;;;;;5.68;4.00;;;11.50;99.90;;;;;;5075367;28;20036;-50
2022/10/14 05:11:33;;;;;;;;;;;11.50;99.90;;;;;;5074938;28;20036;-50
2022/10/14 05:14:00;;;;;;;8.30;4.15;;;11.50;99.90;;;;;;5099818;28;19927;-48
2022/10/14 05:16:29;;;;;;;6.60;4.20;;;11.50;99.90;;;;;;5074367;28;20048;-48
2022/10/14 05:18:56;;;;;;;8.25;3.83;;;11.50;99.90;;;;;;5071030;28;20054;-48
2022/10/14 05:21:23;;;;;;;6.47;4.03;;;11.50;99.90;;;;;;5074408;28;20047;-49
2022/10/14 05:23:58;;;;;;;6.45;3.90;;;11.50;99.90;;;;;;5074046;28;20073;-48
2022/10/14 05:26:28;;;;;;;8.20;4.40;;;11.50;99.90;;;;;;5075606;28;20048;-48
2022/10/14 05:28:57;;;;;;;11.52;4.30;;;11.50;99.90;;;;;;5074643;28;20040;-47
2022/10/14 05:31:24;;;;;;;6.35;4.20;;;11.50;99.90;;;;;;5074454;28;20044;-49
2022/10/14 05:34:10;;;;;;;8.07;4.57;;;11.50;99.90;;;;;;5105650;28;20044;-50
2022/10/14 05:36:37;;;;;;;10.25;4.47;;;11.50;99.90;;;;;;5092574;28;20407;-48
2022/10/14 05:39:07;;;;;;;;;;;11.50;99.90;;;;;;5074531;28;20048;-48
2022/10/14 05:41:36;;;;;;;10.45;5.32;;;11.60;99.90;;;;;;5078918;28;20409;-48
2022/10/14 05:44:03;;;;;;;;;;;11.50;99.90;;;;;;5075699;28;20044;-50
2022/10/14 05:46:30;;;;;;;9.00;5.00;;;11.60;99.90;;;;;;5090599;28;20019;-48
2022/10/14 05:48:59;;;;;;;;;;;11.60;99.90;;;;;;5084368;28;20114;-48
2022/10/14 05:51:26;;;;;;;10.70;4.68;;;11.60;99.90;;;;;;5072339;28;19928;-48
2022/10/14 05:54:00;;;;;;;7.18;4.38;;;11.60;99.90;;;;;;5092149;28;20046;-48
2022/10/14 05:56:27;;;;;;;8.90;5.30;;;11.60;99.90;;;;;;5071651;28;20047;-48
2022/10/14 05:58:53;;;;;;;10.90;5.18;;;11.60;99.90;;;;;;5099800;28;20064;-48
2022/10/14 06:01:20;;;;;;;10.27;6.20;;;11.60;99.90;;;;;;5073459;28;20048;-48
2022/10/14 06:03:51;;;;;;;9.70;6.75;;;11.60;99.90;;;;;;5069192;28;20071;-48
2022/10/14 06:06:18;;;;;;;16.23;6.53;;;11.60;99.90;;;;;;5090338;28;20439;-47
2022/10/14 06:08:45;;;;;;;;;;;11.50;99.90;;;;;;5071950;28;20125;-48
2022/10/14 06:11:12;;;;;;;11.43;6.32;;;11.50;99.90;;;;;;5070721;28;19946;-47
2022/10/14 06:13:39;;;;;;;;;;;11.50;99.90;;;;;;5074405;28;20056;-47
2022/10/14 06:16:08;;;;;;;10.98;6.70;;;11.50;99.90;;;;;;5090467;28;19964;-47
2022/10/14 06:18:36;;;;;;;9.52;6.80;;;11.50;99.90;;;;;;5092706;28;20047;-50
2022/10/14 06:21:04;;;;;;;11.20;6.78;;;11.50;99.90;;;;;;5073886;28;20474;-47
2022/10/14 06:23:31;;;;;;;11.38;6.78;;;11.60;99.90;;;;;;5091577;28;20060;-48
2022/10/14 06:25:58;;;;;;;11.93;6.45;;;11.70;99.90;;;;;;5079184;28;20068;-48
2022/10/14 06:28:25;;;;;;;13.70;7.00;;;11.70;99.90;;;;;;5089692;28;20036;-48
2022/10/14 06:30:52;;;;;;;12.43;7.38;;;11.90;99.90;;;;;;5084941;28;20469;-48
2022/10/14 06:33:20;;;;;;;13.00;6.78;;;11.80;99.90;;;;;;5090791;28;20056;-49
2022/10/14 06:35:47;;;;;;;12.95;7.20;;;11.90;99.90;;;;;;5091012;28;20040;-48
2022/10/14 06:38:14;;;;;;;13.48;6.80;;;12.00;99.90;;;;;;5086039;28;20469;-49
2022/10/14 06:40:41;;;;;;;10.23;7.10;;;12.00;99.90;;;;;;5089175;28;20074;-48
2022/10/14 06:43:08;;;;;;;10.48;7.60;;;12.00;99.90;;;;;;5089167;28;20044;-49
2022/10/14 06:45:35;;;;;;;12.25;7.93;;;12.10;99.90;;;;;;5082554;28;20064;-48
2022/10/14 06:48:03;;;;;;;9.95;6.80;;;12.10;99.90;;;;;;5091846;28;20071;-48
2022/10/14 06:50:30;;;;;;;14.18;6.80;;;12.10;99.90;;;;;;5084338;28;20050;-48
2022/10/14 06:52:57;;;;;;;8.57;6.28;;;12.10;99.90;;;;;;5074026;28;20535;-48
2022/10/14 06:55:23;;;;;;;9.40;6.40;;;12.20;99.90;;;;;;5085341;28;20036;-48
2022/10/14 06:57:50;;;;;;;9.50;6.13;;;12.20;99.90;;;;;;5089323;28;20117;-49
2022/10/14 07:00:17;;;;;;;13.00;6.72;;;12.30;99.90;;;;;;5089595;28;20086;-47
2022/10/14 07:02:44;;;;;;;12.23;6.05;;;12.20;99.90;;;;;;5087564;28;20111;-47
2022/10/14 07:05:11;;;;;;;10.50;6.35;;;12.40;99.90;;;;;;5090140;28;20495;-48
2022/10/14 07:07:38;;;;;;;10.77;6.05;;;12.40;99.90;;;;;;5084440;28;20390;-48
2022/10/14 07:10:05;;;;;;;10.88;6.50;;;12.50;99.90;;;;;;5091119;28;20079;-48
2022/10/14 07:12:32;;;;;;;9.77;5.55;;;12.50;99.90;;;;;;5082034;28;20068;-48
2022/10/14 07:14:59;;;;;;;8.25;5.95;;;12.60;99.90;;;;;;5078419;28;20321;-48
2022/10/14 07:17:25;;;;;;;10.65;5.97;;;12.60;99.90;;;;;;5090390;28;20514;-48
2022/10/14 07:19:52;;;;;;;7.10;5.63;;;12.60;99.90;;;;;;5089562;28;20126;-47
2022/10/14 07:22:19;;;;;;;9.57;5.72;;;12.40;99.90;;;;;;5089236;28;20075;-48
2022/10/14 07:24:46;;;;;;;9.82;6.25;;;12.50;99.90;;;;;;5087223;28;20112;-49
2022/10/14 07:27:14;;;;;;;10.07;6.20;;;12.40;99.90;;;;;;5089595;28;20048;-48
2022/10/14 07:29:42;;;;;;;10.38;5.82;;;12.40;99.90;;;;;;5091155;28;20484;-49
2022/10/14 07:32:08;;;;;;;10.93;5.20;;;12.40;99.90;;;;;;5086960;28;20059;-48
2022/10/14 07:34:35;;;;;;;10.45;5.95;;;12.40;99.90;;;;;;5090547;28;20071;-48
2022/10/14 07:37:02;;;;;;;12.77;6.07;;;12.40;99.90;;;;;;5089524;28;20507;-50
2022/10/14 07:39:29;;;;;;;8.98;5.28;;;12.30;99.90;;;;;;5089151;28;20044;-48
2022/10/14 07:41:55;;;;;;;9.73;6.03;;;12.40;99.90;;;;;;5087867;28;20095;-48
2022/10/14 07:44:22;;;;;;;17.10;5.65;;;12.50;99.90;;;;;;5090362;28;20056;-48
2022/10/14 07:46:53;;;;;;;8.18;5.68;;;12.60;99.90;;;;;;5089211;28;20094;-48
2022/10/14 07:49:21;;;;;;;11.80;6.35;;;12.80;99.90;;;;;;5087630;28;20027;-47
2022/10/14 07:51:48;;;;;;;9.82;5.47;;;12.80;99.90;;;;;;5089369;28;20516;-48
2022/10/14 07:54:20;;;;;;;6.30;4.70;;;12.90;99.90;;;;;;5089652;28;20097;-48
2022/10/14 07:56:50;;;;;;;6.13;4.05;;;13.10;99.90;;;;;;5084284;28;20112;-48
2022/10/14 07:59:18;;;;;;;9.52;4.25;;;13.30;99.90;;;;;;5081335;28;20033;-48
2022/10/14 08:01:50;;;;;;;5.82;3.33;;;13.50;99.90;;;;;;5078446;28;20036;-48
2022/10/14 08:04:17;;;;;;;8.75;3.53;;;13.50;99.90;;;;;;5077342;28;20048;-47
2022/10/14 08:06:46;;;;;;;;;;;13.60;99.90;;;;;;5082482;28;20123;-50
2022/10/14 08:09:12;;;;;;;5.43;4.05;;;13.70;99.90;;;;;;5084719;28;19989;-49
2022/10/14 08:11:39;;;;;;;8.70;4.03;;;13.70;99.90;;;;;;5079587;28;20040;-49
2022/10/14 08:14:06;;;;;;;7.25;3.85;;;13.70;99.90;;;;;;5062073;28;20467;-48
2022/10/14 08:16:35;;;;;;;7.05;4.45;;;13.70;99.90;;;;;;5089816;28;20067;-50
2022/10/14 08:19:06;;;;;;;11.80;5.47;;;13.60;99.90;;;;;;5090847;28;20040;-48
2022/10/14 08:21:40;;;;;;;7.38;4.38;;;13.80;99.90;;;;;;5090237;28;20044;-47
2022/10/14 08:24:07;;;;;;;4.45;3.88;;;13.90;99.90;;;;;;5084506;28;20044;-48
2022/10/14 08:26:40;;;;;;;7.55;3.42;;;14.10;99.90;;;;;;5090042;28;20207;-48
2022/10/14 08:29:10;;;;;;;6.78;3.50;;;14.10;99.90;;;;;;5088080;28;20067;-48
2022/10/14 08:31:37;;;;;;;6.60;3.40;;;14.30;99.90;;;;;;5071956;28;20460;-48
2022/10/14 08:34:03;;;;;;;4.68;3.25;;;14.40;99.90;;;;;;5087999;28;20079;-51
2022/10/14 08:36:30;;;;;;;4.20;3.10;;;14.20;99.90;;;;;;5092105;28;20029;-50
2022/10/14 08:38:57;;;;;;;7.25;3.05;;;14.20;99.90;;;;;;5075546;28;20633;-48
2022/10/14 08:41:43;;;;;;;;;;;14.30;99.90;;;;;;5093959;28;20047;-50
2022/10/14 08:44:13;;;;;;;8.10;3.88;;;14.10;99.90;;;;;;5090510;28;19920;-50
2022/10/14 08:46:49;;;;;;;6.75;3.78;;;14.00;99.90;;;;;;5092389;28;20074;-48
2022/10/14 08:49:24;;;;;;;5.00;3.67;;;13.90;99.90;;;;;;5092929;28;20040;-48
2022/10/14 08:51:59;;;;;;;5.70;2.80;;;14.10;99.90;;;;;;5094536;28;20044;-48
2022/10/14 08:54:34;;;;;;;3.10;2.40;;;14.20;99.90;;;;;;5093357;28;20129;-49
2022/10/14 08:57:02;;;;;;;6.43;3.30;;;14.40;99.90;;;;;;5092313;28;20048;-49
2022/10/14 08:59:39;;;;;;;4.75;3.05;;;14.40;99.90;;;;;;5093491;28;20048;-48
2022/10/14 09:02:17;;;;;;;4.40;2.50;;;14.50;99.90;;;;;;5092760;28;20650;-48
2022/10/14 09:04:45;;;;;;;3.95;2.83;;;14.60;99.90;;;;;;5093434;28;20048;-48
2022/10/14 09:07:16;;;;;;;2.90;2.55;;;14.90;99.90;;;;;;5093528;28;20089;-48
2022/10/14 09:09:48;;;;;;;3.80;2.38;;;14.90;99.90;;;;;;5093850;28;20535;-48
2022/10/14 09:12:18;;;;;;;5.13;2.38;;;15.10;99.90;;;;;;5091468;28;20076;-48
2022/10/14 09:15:02;;;;;;;4.05;2.05;;;15.20;99.90;;;;;;5093254;28;20439;-50
2022/10/14 09:17:39;;;;;;;4.65;1.63;;;15.30;99.90;;;;;;5093768;28;20086;-49
2022/10/14 09:20:14;;;;;;;3.03;1.55;;;15.40;99.90;;;;;;5085564;28;20101;-51
2022/10/14 09:22:41;;;;;;;2.85;1.48;;;15.30;99.90;;;;;;5090869;28;20044;-49
2022/10/14 09:25:14;;;;;;;2.95;1.75;;;15.10;99.90;;;;;;5093822;28;20047;-50
2022/10/14 09:27:41;;;;;;;4.28;2.53;;;15.20;99.90;;;;;;5086422;28;20036;-48
2022/10/14 09:30:14;;;;;;;2.42;2.00;;;15.20;99.90;;;;;;5093885;28;20036;-48
2022/10/14 09:32:43;;;;;;;2.40;1.55;;;15.50;99.90;;;;;;5091834;28;20043;-48
2022/10/14 09:35:31;;;;;;;3.03;1.75;;;15.60;99.90;;;;;;5093237;28;20072;-48
2022/10/14 09:37:59;;;;;;;3.65;2.15;;;15.70;99.90;;;;;;5087659;28;20040;-48
2022/10/14 09:40:30;;;;;;;3.78;1.67;;;15.70;99.90;;;;;;5085736;28;20094;-48
2022/10/14 09:43:13;;;;;;;2.08;1.70;;;15.80;99.90;;;;;;5084449;28;20039;-48
2022/10/14 09:45:51;;;;;;;2.80;1.90;;;16.00;99.90;;;;;;5069731;28;20052;-52
2022/10/14 09:48:23;;;;;;;2.45;1.33;;;16.10;99.90;;;;;;5083288;28;20032;-49
2022/10/14 09:50:53;;;;;;;2.00;1.20;;;16.20;99.90;;;;;;5084636;28;20472;-50
2022/10/14 09:53:40;;;;;;;2.88;1.20;;;16.10;99.90;;;;;;5082408;28;20048;-48
2022/10/14 09:56:09;;;;;;;7.32;1.20;;;16.10;99.90;;;;;;5082272;28;20070;-51
2022/10/14 09:58:54;;;;;;;1.20;1.00;;;16.10;99.90;;;;;;5082235;28;20087;-49
2022/10/14 10:01:34;;;;;;;3.50;1.25;;;16.10;99.90;;;;;;5088714;28;20557;-49
2022/10/14 10:04:23;;;;;;;3.00;1.40;;;16.20;99.90;;;;;;5085478;28;20523;-47
2022/10/14 10:06:52;;;;;;;2.30;1.13;;;16.20;99.90;;;;;;5086046;28;20043;-48
2022/10/14 10:09:20;;;;;;;1.45;1.13;;;16.30;99.90;;;;;;5093041;28;20111;-48
2022/10/14 10:11:47;;;;;;;2.60;1.30;;;16.40;99.90;;;;;;5090135;28;20040;-47
2022/10/14 10:14:37;;;;;;;3.15;1.67;;;16.50;99.90;;;;;;5092688;28;20404;-48
2022/10/14 10:17:06;;;;;;;2.72;1.40;;;16.60;99.90;;;;;;5092077;28;20097;-48
2022/10/14 10:19:34;;;;;;;2.72;1.65;;;16.80;99.90;;;;;;5087217;28;20573;-48
2022/10/14 10:22:23;;;;;;;2.85;1.63;;;16.90;99.90;;;;;;5081239;28;20040;-47
2022/10/14 10:24:51;;;;;;;;;;;16.90;99.90;;;;;;5085017;28;20044;-49
2022/10/14 10:27:25;;;;;;;1.98;1.33;;;17.00;99.90;;;;;;5083401;28;19920;-49
2022/10/14 10:29:56;;;;;;;4.03;1.17;;;17.10;99.90;;;;;;5083392;28;20040;-48
2022/10/14 10:32:42;;;;;;;1.25;1.00;;;17.10;99.90;;;;;;5092171;28;20097;-49
2022/10/14 10:35:47;;;;;;;1.20;1.10;;;17.10;99.90;;;;;;5089825;28;20036;-48
2022/10/14 10:38:33;;;;;;;3.88;1.23;;;17.20;99.90;;;;;;5069739;28;20087;-45
2022/10/14 10:41:21;;;;;;;2.05;1.05;;;17.30;99.90;;;;;;5087082;28;20126;-51
2022/10/14 10:43:50;;;;;;;1.80;1.07;;;17.10;99.90;;;;;;5067169;28;20527;-50
2022/10/14 10:46:39;;;;;;;1.80;1.20;;;17.00;99.90;;;;;;5087201;28;20135;-50
2022/10/14 10:49:17;;;;;;;;;;;17.10;99.90;;;;;;5089484;28;20066;-51
2022/10/14 10:51:55;;;;;;;3.37;1.40;;;17.10;99.90;;;;;;5077190;28;19974;-49
2022/10/14 10:54:32;;;;;;;0.85;0.82;;;17.10;99.90;;;;;;5085218;28;20278;-51
2022/10/14 10:57:08;;;;;;;1.45;1.20;;;17.30;99.90;;;;;;5071504;28;20047;-50
2022/10/14 10:59:55;;;;;;;3.80;1.05;;;17.20;99.90;;;;;;5070185;28;20063;-50
2022/10/14 11:02:43;;;;;;;3.08;1.13;;;17.40;99.90;;;;;;5071329;28;20045;-50
2022/10/14 11:05:31;;;;;;;2.47;1.20;;;17.30;99.90;;;;;;5078688;28;20036;-52
2022/10/14 11:14:20;;;;;;;5.72;1.40;;;17.70;99.90;;;;;;5096168;28;20070;-52
2022/10/14 11:17:08;;;;;;;1.50;1.40;;;17.60;99.90;;;;;;5103745;28;20038;-51
2022/10/14 11:19:49;;;;;;;2.50;1.08;;;17.60;99.90;;;;;;5111202;28;20043;-50
2022/10/14 11:22:53;;;;;;;5.03;1.25;;;17.60;99.90;;;;;;5100557;28;20396;-51
2022/10/14 11:25:33;;;;;;;3.25;1.55;;;17.70;99.90;;;;;;5066415;28;20602;-52
2022/10/14 11:28:23;;;;;;;1.25;1.15;;;17.70;99.90;;;;;;5097492;28;20172;-51
2022/10/14 11:31:18;;;;;;;4.43;1.60;;;17.80;99.90;;;;;;5105372;28;20104;-52
2022/10/14 11:33:53;;;;;;;3.03;1.20;;;17.90;99.90;;;;;;5104848;28;20100;-52
2022/10/14 11:36:44;;;;;;;1.23;1.13;;;18.00;99.90;;;;;;5098069;28;20091;-50
2022/10/14 11:39:40;;;;;;;3.42;1.17;;;17.90;99.90;;;;;;5105309;28;20070;-53
2022/10/14 11:42:41;;;;;;;3.40;1.27;;;18.00;99.90;;;;;;5104029;28;20031;-51
2022/10/14 11:45:27;;;;;;;2.47;1.40;;;18.10;99.90;;;;;;5103925;28;20075;-50
2022/10/14 11:48:03;;;;;;;2.85;1.50;;;18.20;99.90;;;;;;5106780;28;20093;-50
2022/10/14 11:50:38;;;;;;;2.05;1.27;;;18.40;99.90;;;;;;5102997;28;20023;-51
2022/10/14 11:53:21;;;;;;;2.13;1.17;;;18.50;99.90;;;;;;5108329;28;20036;-50
2022/10/14 11:56:16;;;;;;;1.20;1.02;;;18.50;99.90;;;;;;5095734;28;20097;-50
2022/10/14 11:58:45;;;;;;;1.77;1.35;;;18.40;99.90;;;;;;5075076;28;20048;-54
2022/10/14 12:01:15;;;;;;;1.95;1.35;;;18.40;99.90;;;;;;5092178;28;20071;-53
2022/10/14 12:03:58;;;;;;;2.95;1.75;;;18.50;99.90;;;;;;5106117;28;20401;-52
2022/10/14 12:06:46;;;;;;;2.30;1.27;;;18.50;99.90;;;;;;5105043;28;20133;-51
2022/10/14 12:09:35;;;;;;;2.90;1.17;;;18.50;99.90;;;;;;5106101;28;20093;-52
2022/10/14 12:12:19;;;;;;;6.85;2.28;;;18.60;99.90;;;;;;5103918;28;20289;-49
2022/10/14 12:14:50;;;;;;;2.70;1.52;;;18.70;99.90;;;;;;5104798;28;20036;-50
2022/10/14 12:17:23;;;;;;;2.22;1.48;;;18.80;99.90;;;;;;5107378;28;20038;-52
2022/10/14 12:19:51;;;;;;;3.05;1.30;;;18.90;99.90;;;;;;5103091;28;20050;-51
2022/10/14 12:22:19;;;;;;;;;;;19.00;99.90;;;;;;5110621;28;20121;-50
2022/10/14 12:24:53;;;;;;;3.15;1.02;;;18.80;99.90;;;;;;5102017;28;19920;-51
2022/10/14 12:27:23;;;;;;;5.05;1.30;;;18.80;99.90;;;;;;5103994;28;20032;-51
2022/10/14 12:29:51;;;;;;;4.25;1.58;;;18.90;99.90;;;;;;5103267;28;20123;-51
2022/10/14 12:32:24;;;;;;;2.78;1.20;;;18.90;99.90;;;;;;5106288;28;20207;-50
2022/10/14 12:34:56;;;;;;;1.65;1.42;;;19.00;99.90;;;;;;5100820;28;20036;-51
2022/10/14 12:37:23;;;;;;;5.95;1.42;;;19.00;99.90;;;;;;5102242;28;20068;-50
2022/10/14 12:40:05;;;;;;;2.70;1.60;;;18.90;99.90;;;;;;5106285;28;20059;-52
2022/10/14 12:42:59;;;;;;;2.10;1.60;;;19.00;99.90;;;;;;5101819;28;20044;-50
2022/10/14 12:45:31;;;;;;;3.13;1.40;;;18.90;99.90;;;;;;5105600;28;20093;-51
2022/10/14 12:48:14;;;;;;;2.33;1.25;;;19.00;99.90;;;;;;5101678;28;20127;-51
2022/10/14 12:50:42;;;;;;;3.95;2.17;;;19.10;99.90;;;;;;5110044;28;20067;-52
2022/10/14 12:53:57;;;;;;;1.75;1.38;;;19.10;99.90;;;;;;5110715;28;20074;-54
2022/10/14 12:56:42;;;;;;;2.70;1.70;;;19.10;99.90;;;;;;5102167;28;20047;-50
2022/10/14 12:59:20;;;;;;;5.43;2.22;;;19.10;99.90;;;;;;5108087;28;20503;-50
2022/10/14 13:01:54;;;;;;;3.53;2.10;;;18.70;99.90;;;;;;5111230;28;20043;-49
2022/10/14 13:04:21;;;;;;;3.03;1.85;;;18.80;99.90;;;;;;5107109;28;20118;-50
2022/10/14 13:07:12;;;;;;;2.85;1.50;;;19.00;99.90;;;;;;5110787;28;20038;-50
2022/10/14 13:10:37;;;;;;;2.85;1.80;;;19.00;99.90;;;;;;5109338;28;20500;-50
2022/10/14 13:13:37;;;;;;;3.38;1.70;;;18.90;99.90;;;;;;5107003;28;20042;-50
2022/10/14 13:16:05;;;;;;;2.33;1.45;;;19.00;99.90;;;;;;5109982;28;20047;-50
2022/10/14 13:18:33;;;;;;;3.40;1.60;;;19.10;99.90;;;;;;5109300;28;20508;-50
2022/10/14 13:21:01;;;;;;;5.22;1.65;;;19.10;99.90;;;;;;5104194;28;20510;-49
2022/10/14 13:23:42;;;;;;;7.20;1.70;;;19.00;99.90;;;;;;5112403;28;20070;-53
2022/10/14 13:26:32;;;;;;;2.95;1.40;;;19.00;99.90;;;;;;5106638;28;20047;-49
2022/10/14 13:29:18;;;;;;;2.85;1.58;;;18.80;99.90;;;;;;5112870;28;20060;-49